createdAt,value
2018-07-19T00:00:04.321Z,3.43
2018-07-19T00:02:33.058Z,3.60
2018-07-19T00:05:01.964Z,3.97
2018-07-19T00:07:30.954Z,3.43
2018-07-19T00:10:05.516Z,4.80
2018-07-19T00:12:34.387Z,3.43
2018-07-19T00:15:03.246Z,3.67
2018-07-19T00:17:33.210Z,3.70
2018-07-19T00:20:03.009Z,3.47
2018-07-19T00:22:32.855Z,3.80
2018-07-19T00:25:02.622Z,3.70
2018-07-19T00:27:32.523Z,3.40
2018-07-19T00:30:01.429Z,3.10
2018-07-19T00:32:32.226Z,3.60
2018-07-19T00:35:03.104Z,4.07
2018-07-19T00:37:33.830Z,3.43
2018-07-19T00:40:04.875Z,3.10
2018-07-19T00:42:38.350Z,3.70
2018-07-19T00:45:12.318Z,3.80
2018-07-19T00:47:42.143Z,3.63
2018-07-19T00:50:11.950Z,3.57
2018-07-19T00:52:43.871Z,3.47
2018-07-19T00:55:21.658Z,3.47
2018-07-19T00:57:50.543Z,3.70
2018-07-19T01:00:19.354Z,4.33
2018-07-19T01:02:52.102Z,4.20
2018-07-19T01:05:22.903Z,3.63
2018-07-19T01:07:52.754Z,3.40
2018-07-19T01:10:22.588Z,3.97
2018-07-19T01:12:56.570Z,5.60
2018-07-19T01:15:26.382Z,4.17
2018-07-19T01:17:55.186Z,5.30
2018-07-19T01:20:25.123Z,3.97
2018-07-19T01:22:54.943Z,4.30
2018-07-19T01:25:43.766Z,4.30
2018-07-19T01:28:14.614Z,4.10
2018-07-19T01:30:44.498Z,4.50
2018-07-19T01:33:13.434Z,3.63
2018-07-19T01:35:43.289Z,4.17
2018-07-19T01:38:19.166Z,4.60
2018-07-19T01:40:50.010Z,4.33
2018-07-19T01:43:18.854Z,4.20
2018-07-19T01:45:49.709Z,4.60
2018-07-19T01:48:19.501Z,4.03
2018-07-19T01:50:48.386Z,4.30
2018-07-19T01:53:20.522Z,4.67
2018-07-19T01:55:49.361Z,4.20
2018-07-19T01:58:19.246Z,4.40
2018-07-19T02:00:50.254Z,4.80
2018-07-19T02:03:19.250Z,4.63
2018-07-19T02:05:50.074Z,4.63
2018-07-19T02:08:18.922Z,5.33
2018-07-19T02:10:47.830Z,4.57
2018-07-19T02:13:17.587Z,4.80
2018-07-19T02:15:47.366Z,5.40
2018-07-19T02:18:17.174Z,5.40
2018-07-19T02:20:46.114Z,4.93
2018-07-19T02:23:15.874Z,4.60
2018-07-19T02:25:45.622Z,5.23
2018-07-19T02:28:14.394Z,4.80
2018-07-19T02:30:45.167Z,5.10
2018-07-19T02:33:13.962Z,5.23
2018-07-19T02:35:46.098Z,5.60
2018-07-19T02:38:14.946Z,5.47
2018-07-19T02:40:54.370Z,5.70
2018-07-19T02:43:23.234Z,4.77
2018-07-19T02:45:53.162Z,5.50
2018-07-19T02:48:25.194Z,5.33
2018-07-19T02:50:55.694Z,5.10
2018-07-19T02:53:26.363Z,5.87
2018-07-19T02:56:02.698Z,5.10
2018-07-19T02:58:33.950Z,5.33
2018-07-19T03:01:06.958Z,5.27
2018-07-19T03:03:35.738Z,5.00
2018-07-19T03:06:05.858Z,6.33
2018-07-19T03:08:35.730Z,5.27
2018-07-19T03:11:04.634Z,6.13
2018-07-19T03:13:39.057Z,5.20
2018-07-19T03:16:11.442Z,5.67
2018-07-19T03:18:40.370Z,4.67
2018-07-19T03:21:09.166Z,5.83
2018-07-19T03:23:39.946Z,5.47
2018-07-19T03:26:12.642Z,4.77
2018-07-19T03:28:47.309Z,5.30
2018-07-19T03:31:19.826Z,6.97
2018-07-19T03:33:56.577Z,6.00
2018-07-19T03:36:31.434Z,5.13
2018-07-19T03:39:05.518Z,5.90
2018-07-19T03:41:37.366Z,5.90
2018-07-19T03:44:11.546Z,6.20
2018-07-19T03:46:40.373Z,5.93
2018-07-19T03:49:09.238Z,6.60
2018-07-19T03:51:50.898Z,6.60
2018-07-19T03:54:26.221Z,5.97
2018-07-19T03:57:05.798Z,6.90
2018-07-19T03:59:35.597Z,5.60
2018-07-19T04:02:07.509Z,5.70
2018-07-19T04:04:43.966Z,6.13
2018-07-19T04:07:18.290Z,6.17
2018-07-19T04:12:44.153Z,5.97
2018-07-19T04:15:19.642Z,6.60
2018-07-19T04:17:53.841Z,6.10
2018-07-19T04:20:23.725Z,6.07
2018-07-19T04:22:57.565Z,6.17
2018-07-19T04:25:27.009Z,5.90
2018-07-19T04:28:07.365Z,6.83
2018-07-19T04:30:39.737Z,6.23
2018-07-19T04:33:11.645Z,5.83
2018-07-19T04:35:40.469Z,6.00
2018-07-19T04:38:09.242Z,6.30
2018-07-19T04:40:43.744Z,6.60
2018-07-19T04:43:12.485Z,6.67
2018-07-19T04:45:43.224Z,6.27
2018-07-19T04:48:12.103Z,6.60
2018-07-19T04:50:46.525Z,6.50
2018-07-19T04:53:19.033Z,6.40
2018-07-19T04:55:47.882Z,6.63
2018-07-19T04:58:18.629Z,7.10
2018-07-19T05:01:09.940Z,6.20
2018-07-19T05:03:39.733Z,6.60
2018-07-19T05:06:16.953Z,5.97
2018-07-19T05:08:49.334Z,6.13
2018-07-19T05:11:18.169Z,6.50
2018-07-19T05:13:53.428Z,6.20
2018-07-19T05:16:25.665Z,5.93
2018-07-19T05:18:57.641Z,5.10
2018-07-19T05:21:27.469Z,5.30
2018-07-19T05:23:57.281Z,5.30
2018-07-19T05:26:26.103Z,4.53
2018-07-19T05:29:02.469Z,4.10
2018-07-19T05:34:25.945Z,3.80
2018-07-19T05:37:00.527Z,3.67
2018-07-19T05:39:29.585Z,3.47
2018-07-19T05:41:58.392Z,3.60
2018-07-19T05:44:28.181Z,3.50
2018-07-19T05:47:03.366Z,3.73
2018-07-19T05:49:35.538Z,2.87
2018-07-19T05:52:05.257Z,2.73
2018-07-19T05:54:35.081Z,3.23
2018-07-19T05:57:05.067Z,2.80
2018-07-19T05:59:33.798Z,2.67
2018-07-19T06:02:03.569Z,2.10
2018-07-19T06:04:38.873Z,2.20
2018-07-19T06:07:08.689Z,1.80
2018-07-19T06:09:38.705Z,2.33
2018-07-19T06:12:07.585Z,1.83
2018-07-19T06:14:40.597Z,2.47
2018-07-19T06:17:10.846Z,1.83
2018-07-19T06:19:40.705Z,2.40
2018-07-19T06:22:09.569Z,2.00
2018-07-19T06:24:42.185Z,1.80
2018-07-19T06:27:14.741Z,2.70
2018-07-19T06:29:44.581Z,2.00
2018-07-19T06:32:17.479Z,2.23
2018-07-19T06:37:40.694Z,2.60
2018-07-19T06:40:09.542Z,1.90
2018-07-19T06:42:38.321Z,2.10
2018-07-19T06:45:17.473Z,2.50
2018-07-19T06:47:53.345Z,2.00
2018-07-19T06:50:26.618Z,2.10
2018-07-19T06:52:56.462Z,2.27
2018-07-19T06:55:25.289Z,1.83
2018-07-19T06:58:06.357Z,2.30
2018-07-19T07:00:36.197Z,2.07
2018-07-19T07:03:06.383Z,2.30
2018-07-19T07:05:35.253Z,2.20
2018-07-19T07:08:04.081Z,2.60
2018-07-19T07:10:32.897Z,1.60
2018-07-19T07:13:03.522Z,1.70
2018-07-19T07:15:36.081Z,2.13
2018-07-19T07:18:10.793Z,2.00
2018-07-19T07:20:45.809Z,1.93
2018-07-19T07:23:19.544Z,1.80
2018-07-19T07:26:06.692Z,2.10
2018-07-19T07:28:43.676Z,2.07
2018-07-19T07:31:18.033Z,2.13
2018-07-19T07:33:46.862Z,2.03
2018-07-19T07:36:20.029Z,3.07
2018-07-19T07:38:54.027Z,1.83
2018-07-19T07:41:34.413Z,2.27
2018-07-19T07:44:03.251Z,2.40
2018-07-19T07:46:31.929Z,1.93
2018-07-19T07:49:02.714Z,1.80
2018-07-19T07:51:31.709Z,1.63
2018-07-19T07:54:00.434Z,2.10
2018-07-19T07:56:29.185Z,2.57
2018-07-19T07:58:58.033Z,2.20
2018-07-19T08:01:26.817Z,1.93
2018-07-19T08:03:56.573Z,1.90
2018-07-19T08:06:26.393Z,2.20
2018-07-19T08:09:09.669Z,2.50
2018-07-19T08:11:39.405Z,2.37
2018-07-19T08:14:09.285Z,3.03
2018-07-19T08:16:38.161Z,2.57
2018-07-19T08:19:08.945Z,2.17
2018-07-19T08:21:47.841Z,2.10
2018-07-19T08:24:17.553Z,2.20
2018-07-19T08:26:46.361Z,2.13
2018-07-19T08:29:17.101Z,2.47
2018-07-19T08:31:45.840Z,2.33
2018-07-19T08:34:18.407Z,2.67
2018-07-19T08:36:48.133Z,2.57
2018-07-19T08:39:17.913Z,2.33
2018-07-19T08:41:50.128Z,3.30
2018-07-19T08:44:18.817Z,2.40
2018-07-19T08:46:53.433Z,1.97
2018-07-19T08:49:25.953Z,2.40
2018-07-19T08:51:59.837Z,2.13
2018-07-19T08:54:36.053Z,2.03
2018-07-19T08:57:09.893Z,2.50
2018-07-19T08:59:57.293Z,1.97
2018-07-19T09:02:26.145Z,1.80
2018-07-19T09:04:54.913Z,2.10
2018-07-19T09:07:25.625Z,2.63
2018-07-19T09:09:58.393Z,2.17
2018-07-19T09:12:36.921Z,2.20
2018-07-19T09:15:12.164Z,2.53
2018-07-19T09:17:46.241Z,3.40
2018-07-19T09:20:16.037Z,2.53
2018-07-19T09:22:50.024Z,2.37
2018-07-19T09:25:18.716Z,2.20
2018-07-19T09:27:47.489Z,2.23
2018-07-19T09:30:17.305Z,2.30
2018-07-19T09:32:57.841Z,2.70
2018-07-19T09:35:32.289Z,2.10
2018-07-19T09:38:01.065Z,2.90
2018-07-19T09:40:37.385Z,2.43
2018-07-19T09:43:12.373Z,2.40
2018-07-19T09:45:57.509Z,2.67
2018-07-19T09:48:42.377Z,2.50
2018-07-19T09:51:17.157Z,1.83
2018-07-19T09:53:56.768Z,2.73
2018-07-19T09:56:26.614Z,2.33
2018-07-19T09:59:01.013Z,2.17
2018-07-19T10:01:40.361Z,2.17
2018-07-19T10:04:09.141Z,2.70
2018-07-19T10:06:54.466Z,2.10
2018-07-19T10:09:27.256Z,2.20
2018-07-19T10:11:57.117Z,2.70
2018-07-19T10:14:27.915Z,2.40
2018-07-19T10:16:56.717Z,2.37
2018-07-19T10:19:25.486Z,2.30
2018-07-19T10:22:01.405Z,2.47
2018-07-19T10:24:53.976Z,1.97
2018-07-19T10:27:24.732Z,2.10
2018-07-19T10:29:55.496Z,2.67
2018-07-19T10:32:26.391Z,2.57
2018-07-19T10:35:12.164Z,2.50
2018-07-19T10:37:42.936Z,2.13
2018-07-19T10:40:17.069Z,2.23
2018-07-19T10:42:53.357Z,2.50
2018-07-19T10:45:22.217Z,2.67
2018-07-19T10:47:56.512Z,2.33
2018-07-19T10:50:26.310Z,2.50
2018-07-19T10:52:58.292Z,3.00
2018-07-19T10:55:27.279Z,2.57
2018-07-19T10:58:06.448Z,2.30
2018-07-19T11:00:39.104Z,2.23
2018-07-19T11:03:08.925Z,2.33
2018-07-19T11:05:38.896Z,2.30
2018-07-19T11:08:11.288Z,2.13
2018-07-19T11:10:42.036Z,2.40
2018-07-19T11:13:15.932Z,2.53
2018-07-19T11:15:54.281Z,2.43
2018-07-19T11:18:33.900Z,2.83
2018-07-19T11:21:02.684Z,2.93
2018-07-19T11:23:32.480Z,2.20
2018-07-19T11:26:02.341Z,2.17
2018-07-19T11:28:32.132Z,2.27
2018-07-19T11:31:08.584Z,2.20
2018-07-19T11:33:56.860Z,2.50
2018-07-19T11:36:29.488Z,2.63
2018-07-19T11:39:10.317Z,2.33
2018-07-19T11:41:48.836Z,2.10
2018-07-19T11:44:33.788Z,2.57
2018-07-19T11:47:15.081Z,2.00
2018-07-19T11:49:50.867Z,2.63
2018-07-19T11:52:23.148Z,2.30
2018-07-19T11:54:58.428Z,2.03
2018-07-19T11:57:28.208Z,3.30
2018-07-19T11:59:57.144Z,3.13
2018-07-19T12:02:26.085Z,2.63
2018-07-19T12:04:56.372Z,2.63
2018-07-19T12:07:41.228Z,2.37
2018-07-19T12:10:14.021Z,2.60
2018-07-19T12:12:44.832Z,2.60
2018-07-19T12:15:16.696Z,2.37
2018-07-19T12:20:43.909Z,2.80
2018-07-19T12:23:12.769Z,2.77
2018-07-19T12:25:53.844Z,2.40
2018-07-19T12:28:32.252Z,2.70
2018-07-19T12:31:01.608Z,2.40
2018-07-19T12:36:30.263Z,2.70
2018-07-19T12:39:15.544Z,2.37
2018-07-19T12:41:56.304Z,2.20
2018-07-19T12:44:35.608Z,2.33
2018-07-19T12:47:10.807Z,2.40
2018-07-19T12:49:51.619Z,2.43
2018-07-19T12:52:50.220Z,2.73
2018-07-19T12:55:49.111Z,2.43
2018-07-19T12:58:19.799Z,2.40
2018-07-19T13:01:05.904Z,2.90
2018-07-19T13:03:38.508Z,2.70
2018-07-19T13:06:11.364Z,2.80
2018-07-19T13:08:43.308Z,2.60
2018-07-19T13:11:13.552Z,2.50
2018-07-19T13:13:48.432Z,2.17
2018-07-19T13:16:36.052Z,2.37
2018-07-19T13:19:04.911Z,2.33
2018-07-19T13:24:45.469Z,2.70
2018-07-19T13:27:15.260Z,2.63
2018-07-19T13:29:44.053Z,2.13
2018-07-19T13:32:16.387Z,2.30
2018-07-19T13:35:02.084Z,2.40
2018-07-19T13:37:31.180Z,2.30
2018-07-19T13:40:14.623Z,2.40
2018-07-19T13:45:43.275Z,3.13
2018-07-19T13:48:16.158Z,2.33
2018-07-19T13:50:51.872Z,2.30
2018-07-19T13:53:35.399Z,2.60
2018-07-19T13:56:07.373Z,2.20
2018-07-19T13:58:42.191Z,2.33
2018-07-19T14:01:22.356Z,2.70
2018-07-19T14:03:53.136Z,2.33
2018-07-19T14:06:26.520Z,2.57
2018-07-19T14:09:14.492Z,2.93
2018-07-19T14:11:50.360Z,3.23
2018-07-19T14:14:26.311Z,2.90
2018-07-19T14:16:56.096Z,2.63
2018-07-19T14:19:33.180Z,2.53
2018-07-19T14:22:07.504Z,2.10
2018-07-19T14:24:48.344Z,2.40
2018-07-19T14:27:21.128Z,2.33
2018-07-19T14:29:49.924Z,2.60
2018-07-19T14:32:20.731Z,2.40
2018-07-19T14:35:08.558Z,2.37
2018-07-19T14:37:44.703Z,2.60
2018-07-19T14:40:15.368Z,2.50
2018-07-19T14:42:47.224Z,2.87
2018-07-19T14:45:16.028Z,2.40
2018-07-19T14:47:44.780Z,2.83
2018-07-19T14:50:13.840Z,2.50
2018-07-19T14:52:42.960Z,2.80
2018-07-19T14:55:12.700Z,2.60
2018-07-19T14:57:53.932Z,2.30
2018-07-19T15:00:39.307Z,2.40
2018-07-19T15:03:14.532Z,2.70
2018-07-19T15:05:43.386Z,2.50
2018-07-19T15:08:14.232Z,2.37
2018-07-19T15:10:43.036Z,2.63
2018-07-19T15:13:11.879Z,2.20
2018-07-19T15:15:42.667Z,2.20
2018-07-19T15:18:15.343Z,2.47
2018-07-19T15:20:48.379Z,2.43
2018-07-19T15:23:27.611Z,2.43
2018-07-19T15:26:13.696Z,2.70
2018-07-19T15:28:58.779Z,2.53
2018-07-19T15:31:27.516Z,2.57
2018-07-19T15:34:01.252Z,2.10
2018-07-19T15:36:34.424Z,2.40
2018-07-19T15:39:03.775Z,2.70
2018-07-19T15:41:32.476Z,2.60
2018-07-19T15:44:01.228Z,2.43
2018-07-19T15:46:30.979Z,2.67
2018-07-19T15:49:02.988Z,2.80
2018-07-19T15:51:31.824Z,2.30
2018-07-19T15:54:10.279Z,2.20
2018-07-19T15:56:42.952Z,3.00
2018-07-19T15:59:15.959Z,2.67
2018-07-19T16:01:49.873Z,2.40
2018-07-19T16:04:25.528Z,2.80
2018-07-19T16:06:57.529Z,2.47
2018-07-19T16:09:28.311Z,2.43
2018-07-19T16:11:59.059Z,2.40
2018-07-19T16:14:31.911Z,2.90
2018-07-19T16:17:00.704Z,2.33
2018-07-19T16:19:29.489Z,2.50
2018-07-19T16:21:58.211Z,2.57
2018-07-19T16:24:32.219Z,2.40
2018-07-19T16:27:01.986Z,2.80
2018-07-19T16:29:34.231Z,2.27
2018-07-19T16:32:05.029Z,5.03
2018-07-19T16:34:34.883Z,2.33
2018-07-19T16:37:03.628Z,2.50
2018-07-19T16:39:32.472Z,2.80
2018-07-19T16:42:02.327Z,2.60
2018-07-19T16:44:55.032Z,2.80
2018-07-19T16:47:27.548Z,2.77
2018-07-19T16:50:01.264Z,2.97
2018-07-19T16:52:33.156Z,2.30
2018-07-19T16:55:07.759Z,2.40
2018-07-19T16:57:45.955Z,3.27
2018-07-19T17:00:16.699Z,2.80
2018-07-19T17:02:45.496Z,2.70
2018-07-19T17:05:14.369Z,2.30
2018-07-19T17:07:43.172Z,2.40
2018-07-19T17:10:11.951Z,2.40
2018-07-19T17:12:42.792Z,2.73
2018-07-19T17:15:15.326Z,2.10
2018-07-19T17:17:55.395Z,2.50
2018-07-19T17:20:26.194Z,3.00
2018-07-19T17:23:00.496Z,2.10
2018-07-19T17:25:45.912Z,2.67
2018-07-19T17:28:30.675Z,3.07
2018-07-19T17:31:02.723Z,2.40
2018-07-19T17:33:31.611Z,2.60
2018-07-19T17:36:00.479Z,2.40
2018-07-19T17:38:30.435Z,2.40
2018-07-19T17:40:59.247Z,2.90
2018-07-19T17:43:28.047Z,2.80
2018-07-19T17:45:57.778Z,2.40
2018-07-19T17:48:42.591Z,2.40
2018-07-19T17:51:12.475Z,2.97
2018-07-19T17:53:41.483Z,3.00
2018-07-19T17:56:14.199Z,2.40
2018-07-19T17:58:46.154Z,2.10
2018-07-19T18:01:14.895Z,2.90
2018-07-19T18:03:43.769Z,2.57
2018-07-19T18:06:12.499Z,3.23
2018-07-19T18:08:42.455Z,2.57
2018-07-19T18:11:12.307Z,2.93
2018-07-19T18:13:41.179Z,2.70
2018-07-19T18:16:13.431Z,2.50
2018-07-19T18:18:42.219Z,3.07
2018-07-19T18:21:14.175Z,2.70
2018-07-19T18:23:42.983Z,2.30
2018-07-19T18:26:15.215Z,2.57
2018-07-19T18:28:45.947Z,2.57
2018-07-19T18:31:14.843Z,2.80
2018-07-19T18:33:43.663Z,3.10
2018-07-19T18:36:15.599Z,3.00
2018-07-19T18:38:45.396Z,2.77
2018-07-19T18:41:14.135Z,2.87
2018-07-19T18:43:42.922Z,3.07
2018-07-19T18:46:17.774Z,3.00
2018-07-19T18:48:48.558Z,2.60
2018-07-19T18:51:23.140Z,2.80
2018-07-19T18:53:52.914Z,3.23
2018-07-19T18:56:22.847Z,3.20
2018-07-19T18:58:51.358Z,3.00
2018-07-19T19:01:26.099Z,3.50
2018-07-19T19:04:01.278Z,3.07
2018-07-19T19:06:34.684Z,2.90
2018-07-19T19:09:07.162Z,2.80
2018-07-19T19:11:36.978Z,3.13
2018-07-19T19:14:06.946Z,2.77
2018-07-19T19:16:36.698Z,3.20
2018-07-19T19:19:05.606Z,2.93
2018-07-19T19:21:35.371Z,2.80
2018-07-19T19:24:05.239Z,3.00
2018-07-19T19:26:36.190Z,2.97
2018-07-19T19:29:07.130Z,3.07
2018-07-19T19:31:35.979Z,3.20
2018-07-19T19:34:05.291Z,3.10
2018-07-19T19:36:35.036Z,2.90
2018-07-19T19:39:10.766Z,2.90
2018-07-19T19:41:41.022Z,2.80
2018-07-19T19:44:11.653Z,3.77
2018-07-19T19:46:42.410Z,3.50
2018-07-19T19:49:11.203Z,3.67
2018-07-19T19:51:44.389Z,3.07
2018-07-19T19:54:14.184Z,3.93
2018-07-19T19:56:47.170Z,3.30
2018-07-19T19:59:21.190Z,3.43
2018-07-19T20:01:50.926Z,3.37
2018-07-19T20:04:21.102Z,3.77
2018-07-19T20:06:49.979Z,4.70
2018-07-19T20:09:18.818Z,3.73
2018-07-19T20:11:47.555Z,3.53
2018-07-19T20:14:16.407Z,3.87
2018-07-19T20:16:50.574Z,3.20
2018-07-19T20:19:19.528Z,3.33
2018-07-19T20:21:48.570Z,3.47
2018-07-19T20:24:20.742Z,3.70
2018-07-19T20:26:52.043Z,3.50
2018-07-19T20:29:32.815Z,4.10
2018-07-19T20:32:01.712Z,3.23
2018-07-19T20:34:30.742Z,3.50
2018-07-19T20:37:01.748Z,5.33
2018-07-19T20:39:32.883Z,4.07
2018-07-19T20:42:05.015Z,4.47
2018-07-19T20:44:33.914Z,3.53
2018-07-19T20:47:03.715Z,3.63
2018-07-19T20:49:34.554Z,3.80
2018-07-19T20:52:03.538Z,3.97
2018-07-19T20:54:32.554Z,4.33
2018-07-19T20:57:01.543Z,4.10
2018-07-19T20:59:32.414Z,4.67
2018-07-19T21:02:02.346Z,4.43
2018-07-19T21:04:31.575Z,4.33
2018-07-19T21:07:06.143Z,5.23
2018-07-19T21:09:36.949Z,5.70
2018-07-19T21:12:05.962Z,4.10
2018-07-19T21:14:34.790Z,4.93
2018-07-19T21:17:11.226Z,4.27
2018-07-19T21:19:40.683Z,4.27
2018-07-19T21:22:11.703Z,4.17
2018-07-19T21:24:44.463Z,3.90
2018-07-19T21:27:13.478Z,4.57
2018-07-19T21:29:42.119Z,4.57
2018-07-19T21:32:11.894Z,5.00
2018-07-19T21:34:40.843Z,4.33
2018-07-19T21:37:11.746Z,4.20
2018-07-19T21:39:42.618Z,5.20
2018-07-19T21:42:11.470Z,4.60
2018-07-19T21:44:41.390Z,4.13
2018-07-19T21:47:12.212Z,4.13
2018-07-19T21:49:48.087Z,4.47
2018-07-19T21:52:16.965Z,4.30
2018-07-19T21:54:45.831Z,4.53
2018-07-19T21:57:14.754Z,4.87
2018-07-19T21:59:43.675Z,5.17
2018-07-19T22:02:15.518Z,5.00
2018-07-19T22:04:45.402Z,4.33
2018-07-19T22:07:15.210Z,4.80
2018-07-19T22:09:44.208Z,4.37
2018-07-19T22:12:13.128Z,4.77
2018-07-19T22:14:42.026Z,4.70
2018-07-19T22:17:14.390Z,5.13
2018-07-19T22:19:44.382Z,5.00
2018-07-19T22:22:13.238Z,5.70
2018-07-19T22:24:42.027Z,5.50
2018-07-19T22:27:12.006Z,4.93
2018-07-19T22:29:40.926Z,6.63
2018-07-19T22:32:11.050Z,6.60
2018-07-19T22:34:41.094Z,9.30
2018-07-19T22:37:13.162Z,5.13
2018-07-19T22:39:45.898Z,5.03
2018-07-19T22:42:16.693Z,5.13
2018-07-19T22:44:51.197Z,5.63
2018-07-19T22:47:21.194Z,5.03
2018-07-19T22:49:50.123Z,4.53
2018-07-19T22:52:19.043Z,5.17
2018-07-19T22:54:50.966Z,5.43
2018-07-19T22:57:21.817Z,5.30
2018-07-19T22:59:52.656Z,5.07
2018-07-19T23:02:21.522Z,5.77
2018-07-19T23:04:55.542Z,6.00
2018-07-19T23:07:25.374Z,5.70
2018-07-19T23:09:55.290Z,5.13
2018-07-19T23:12:26.194Z,4.53
2018-07-19T23:14:56.994Z,4.83
2018-07-19T23:17:26.866Z,4.80
2018-07-19T23:19:55.742Z,4.70
2018-07-19T23:22:24.642Z,5.40
2018-07-19T23:24:54.538Z,5.90
2018-07-19T23:27:26.829Z,5.93
2018-07-19T23:29:55.686Z,5.27
2018-07-19T23:32:24.611Z,4.70
2018-07-19T23:34:53.546Z,5.60
2018-07-19T23:37:38.442Z,5.93
2018-07-19T23:40:15.969Z,5.97
2018-07-19T23:42:51.225Z,5.60
2018-07-19T23:46:27.438Z,5.30
2018-07-19T23:49:02.527Z,5.50
2018-07-19T23:51:32.310Z,5.97
2018-07-19T23:54:01.361Z,6.80
2018-07-19T23:56:30.266Z,7.30
2018-07-19T23:58:59.158Z,6.10
